Time;durP1;ratioP1;P1;durP2;ratioP2;P2;SDS_P1;SDS_P2;PMS_P1;PMS_P2;Temp;Humidity;BMP_temperature;BMP_pressure;BME280_temperature;BME280_humidity;BME280_pressure;Samples;Min_cycle;Max_cycle;Signal;HPM_P1;HPM_P2
2022/03/04 00:02:02;;;;;;;12.00;9.63;;;14.90;59.50;;;;;;4062011;29;20048;-65
2022/03/04 00:04:26;;;;;;;12.93;9.50;;;14.80;59.50;;;;;;4057886;29;20527;-65
2022/03/04 00:06:48;;;;;;;14.13;9.82;;;14.80;59.60;;;;;;4047362;29;20067;-65
2022/03/04 00:09:10;;;;;;;12.15;9.02;;;14.80;59.60;;;;;;4047761;29;20052;-65
2022/03/04 00:11:33;;;;;;;12.70;10.07;;;14.80;59.60;;;;;;4061775;29;20052;-65
2022/03/04 00:13:56;;;;;;;15.07;10.15;;;14.80;60.20;;;;;;4062091;29;20071;-65
2022/03/04 00:16:18;;;;;;;14.75;9.95;;;14.90;60.50;;;;;;4061223;29;20130;-65
2022/03/04 00:18:42;;;;;;;15.20;10.38;;;14.90;60.60;;;;;;4062610;29;20052;-65
2022/03/04 00:21:04;;;;;;;15.38;10.30;;;15.00;61.40;;;;;;4048186;29;20052;-65
2022/03/04 00:23:26;;;;;;;14.10;10.45;;;15.00;60.50;;;;;;4048501;29;20491;-66
2022/03/04 00:25:48;;;;;;;14.00;11.20;;;15.10;60.20;;;;;;4052533;29;20052;-65
2022/03/04 00:28:10;;;;;;;14.57;10.70;;;15.10;59.90;;;;;;4060331;29;20083;-65
2022/03/04 00:30:32;;;;;;;15.88;10.65;;;15.10;59.60;;;;;;4048307;29;20889;-65
2022/03/04 00:32:55;;;;;;;14.73;9.93;;;15.20;59.60;;;;;;4051526;29;20107;-68
2022/03/04 00:35:18;;;;;;;15.57;10.23;;;15.10;59.70;;;;;;4048184;29;20048;-66
2022/03/04 00:37:41;;;;;;;14.07;10.13;;;15.10;60.00;;;;;;4062903;29;20146;-65
2022/03/04 00:40:06;;;;;;;18.67;11.18;;;15.10;60.00;;;;;;4062926;29;20060;-66
2022/03/04 00:42:28;;;;;;;15.73;10.82;;;15.20;59.90;;;;;;4050726;29;20116;-65
2022/03/04 00:44:50;;;;;;;14.88;9.75;;;15.20;59.90;;;;;;4061773;29;20064;-66
2022/03/04 00:47:13;;;;;;;15.75;9.93;;;15.30;59.90;;;;;;4047200;29;20055;-66
2022/03/04 00:49:35;;;;;;;15.13;10.20;;;15.30;59.90;;;;;;4047119;29;20060;-66
2022/03/04 00:51:59;;;;;;;15.23;11.23;;;15.40;60.60;;;;;;4033032;29;20140;-66
2022/03/04 00:54:21;;;;;;;16.40;10.48;;;15.40;59.70;;;;;;4047269;29;20104;-65
2022/03/04 00:56:44;;;;;;;17.90;11.30;;;15.40;59.60;;;;;;4047071;29;20071;-65
2022/03/04 00:59:06;;;;;;;14.18;10.60;;;15.40;59.50;;;;;;4046926;29;20056;-66
2022/03/04 01:01:29;;;;;;;14.60;10.38;;;15.50;59.40;;;;;;4059425;29;20090;-65
2022/03/04 01:03:51;;;;;;;16.27;11.50;;;15.40;59.20;;;;;;4060848;29;20076;-66
2022/03/04 01:06:13;;;;;;;15.07;10.85;;;15.40;59.20;;;;;;4047405;29;20081;-66
2022/03/04 01:08:37;;;;;;;17.45;10.57;;;15.40;59.20;;;;;;4047176;29;20064;-65
2022/03/04 01:11:00;;;;;;;13.20;9.95;;;15.40;59.00;;;;;;4046833;29;20569;-64
2022/03/04 01:13:22;;;;;;;16.05;10.15;;;15.40;59.20;;;;;;4062403;29;20051;-67
2022/03/04 01:15:45;;;;;;;13.65;10.35;;;15.50;59.30;;;;;;4054467;29;20052;-65
2022/03/04 01:18:07;;;;;;;15.88;11.60;;;15.50;59.00;;;;;;4064382;29;20048;-65
2022/03/04 01:20:30;;;;;;;13.05;10.13;;;15.50;57.50;;;;;;4050832;29;20104;-65
2022/03/04 01:22:53;;;;;;;16.13;11.63;;;15.50;56.90;;;;;;4056378;29;20049;-64
2022/03/04 01:25:17;;;;;;;14.20;10.77;;;15.50;57.40;;;;;;4061516;29;20059;-64
2022/03/04 01:27:39;;;;;;;15.77;10.48;;;15.50;55.00;;;;;;4065904;29;20048;-65
2022/03/04 01:30:01;;;;;;;18.15;11.32;;;15.50;55.90;;;;;;4063473;29;21321;-65
2022/03/04 01:32:23;;;;;;;17.00;11.65;;;15.50;56.70;;;;;;4060386;29;20108;-65
2022/03/04 01:34:45;;;;;;;15.77;11.15;;;15.50;55.40;;;;;;4049765;29;20483;-64
2022/03/04 01:37:08;;;;;;;14.38;10.88;;;15.50;54.50;;;;;;4050103;29;20080;-65
2022/03/04 01:39:30;;;;;;;17.95;10.80;;;15.50;55.40;;;;;;4049721;29;20059;-64
2022/03/04 01:41:54;;;;;;;15.35;11.35;;;15.60;57.50;;;;;;4055933;29;20044;-66
2022/03/04 01:44:16;;;;;;;16.45;11.20;;;15.70;53.20;;;;;;4063003;29;20060;-64
2022/03/04 01:46:39;;;;;;;14.98;11.40;;;15.70;52.90;;;;;;4064833;29;20067;-65
2022/03/04 01:49:01;;;;;;;17.98;11.77;;;15.70;53.50;;;;;;4064850;29;20051;-67
2022/03/04 01:51:24;;;;;;;15.48;12.40;;;15.70;53.80;;;;;;4049404;29;20048;-65
2022/03/04 01:53:46;;;;;;;16.63;10.70;;;15.60;53.20;;;;;;4049262;29;20059;-65
2022/03/04 01:56:09;;;;;;;17.10;10.82;;;15.60;53.60;;;;;;4049152;29;20133;-65
2022/03/04 01:58:34;;;;;;;16.27;11.45;;;15.60;56.20;;;;;;4050119;29;20056;-65
2022/03/04 02:00:56;;;;;;;14.75;10.75;;;15.60;56.50;;;;;;4049643;29;20789;-66
2022/03/04 02:03:19;;;;;;;17.00;11.38;;;15.50;56.90;;;;;;4062652;29;20055;-65
2022/03/04 02:05:42;;;;;;;18.33;12.10;;;15.50;56.50;;;;;;4064598;29;20091;-64
2022/03/04 02:08:05;;;;;;;16.25;10.27;;;15.50;57.30;;;;;;4059526;29;20075;-64
2022/03/04 02:10:27;;;;;;;18.00;12.57;;;15.50;57.90;;;;;;4049417;29;20062;-65
2022/03/04 02:12:49;;;;;;;16.98;10.93;;;15.50;57.90;;;;;;4063261;29;20055;-64
2022/03/04 02:15:13;;;;;;;15.93;11.07;;;15.50;58.00;;;;;;4054793;29;20048;-65
2022/03/04 02:17:35;;;;;;;14.55;10.48;;;15.50;58.60;;;;;;4050410;29;20381;-65
2022/03/04 02:19:59;;;;;;;14.98;10.63;;;15.50;58.00;;;;;;4049268;29;20143;-66
2022/03/04 02:22:22;;;;;;;13.73;10.07;;;15.50;58.10;;;;;;4056488;29;20135;-66
2022/03/04 02:24:44;;;;;;;16.70;11.18;;;15.50;58.40;;;;;;4064205;29;20490;-66
2022/03/04 02:27:08;;;;;;;15.48;10.18;;;15.50;58.60;;;;;;4064035;29;20406;-66
2022/03/04 02:29:34;;;;;;;15.25;10.63;;;15.60;58.70;;;;;;4062863;29;20134;-66
2022/03/04 02:31:56;;;;;;;14.80;10.55;;;15.70;58.60;;;;;;4055700;29;20087;-66
2022/03/04 02:34:19;;;;;;;15.77;10.85;;;15.80;58.40;;;;;;4064041;29;20056;-66
2022/03/04 02:36:42;;;;;;;16.65;11.60;;;15.80;58.20;;;;;;4064128;29;20048;-66
2022/03/04 02:39:06;;;;;;;15.90;11.13;;;15.90;58.10;;;;;;4064771;29;20052;-65
2022/03/04 02:41:29;;;;;;;15.82;10.95;;;15.90;58.10;;;;;;4063128;29;20167;-64
2022/03/04 02:43:51;;;;;;;14.80;11.07;;;15.90;57.80;;;;;;4047453;29;20147;-64
2022/03/04 02:46:13;;;;;;;16.90;11.05;;;15.90;56.80;;;;;;4049723;29;20115;-66
2022/03/04 02:48:36;;;;;;;16.52;11.82;;;15.90;56.80;;;;;;4048397;29;20056;-60
2022/03/04 02:50:58;;;;;;;18.08;12.48;;;15.80;56.10;;;;;;4048563;29;20410;-60
2022/03/04 02:53:21;;;;;;;14.68;11.13;;;15.90;54.80;;;;;;4063886;29;20047;-61
2022/03/04 02:55:44;;;;;;;15.98;11.13;;;15.90;55.30;;;;;;4063472;29;20072;-61
2022/03/04 02:58:06;;;;;;;15.82;11.32;;;15.90;57.00;;;;;;4064265;29;20056;-59
2022/03/04 03:00:28;;;;;;;16.55;11.52;;;15.90;57.60;;;;;;4062272;29;20119;-60
2022/03/04 03:02:51;;;;;;;14.43;10.18;;;15.90;57.00;;;;;;4050450;29;20506;-61
2022/03/04 03:05:13;;;;;;;14.57;10.60;;;15.90;57.70;;;;;;4048229;29;20064;-60
2022/03/04 03:07:36;;;;;;;16.17;10.18;;;15.90;57.80;;;;;;4048156;29;20060;-60
2022/03/04 03:09:58;;;;;;;15.30;11.00;;;16.00;57.80;;;;;;4048242;29;20056;-58
2022/03/04 03:12:22;;;;;;;15.20;10.98;;;15.90;57.80;;;;;;4050141;29;20052;-60
2022/03/04 03:14:44;;;;;;;16.02;11.40;;;15.90;57.90;;;;;;4054844;29;20492;-60
2022/03/04 03:17:06;;;;;;;16.58;11.18;;;15.80;58.00;;;;;;4063976;29;20462;-60
2022/03/04 03:19:28;;;;;;;17.63;11.52;;;15.80;58.40;;;;;;4063889;29;20112;-60
2022/03/04 03:21:51;;;;;;;15.85;10.95;;;15.90;58.60;;;;;;4058264;29;20056;-60
2022/03/04 03:24:14;;;;;;;15.02;11.02;;;16.00;58.40;;;;;;4048441;29;20119;-60
2022/03/04 03:26:36;;;;;;;14.45;10.55;;;16.10;57.80;;;;;;4048311;29;20131;-60
2022/03/04 03:29:00;;;;;;;15.85;10.57;;;16.20;57.70;;;;;;4059156;29;20769;-61
2022/03/04 03:31:21;;;;;;;16.63;11.10;;;16.20;57.50;;;;;;4048139;29;20116;-61
2022/03/04 03:33:44;;;;;;;14.25;10.80;;;16.20;57.50;;;;;;4046602;29;20082;-60
2022/03/04 03:36:06;;;;;;;15.75;11.02;;;16.20;57.30;;;;;;4046507;29;20136;-60
2022/03/04 03:38:28;;;;;;;14.38;10.23;;;16.20;57.20;;;;;;4048376;29;20051;-60
2022/03/04 03:40:51;;;;;;;15.93;11.13;;;16.20;57.40;;;;;;4047928;29;20479;-61
2022/03/04 03:43:32;;;;;;;14.13;10.55;;;16.10;57.40;;;;;;4060555;29;20111;-60
2022/03/04 03:45:56;;;;;;;15.90;11.25;;;16.10;57.60;;;;;;4062813;29;20059;-60
2022/03/04 03:48:17;;;;;;;16.58;11.50;;;16.10;57.50;;;;;;4062352;29;20059;-60
2022/03/04 03:50:40;;;;;;;15.32;11.65;;;16.10;57.40;;;;;;4062774;29;20055;-59
2022/03/04 03:53:02;;;;;;;14.80;10.93;;;16.10;57.50;;;;;;4047420;29;20147;-60
2022/03/04 03:55:24;;;;;;;18.13;11.73;;;16.10;57.60;;;;;;4046781;29;20148;-59
2022/03/04 03:57:46;;;;;;;16.08;11.93;;;16.00;57.60;;;;;;4047402;29;20101;-59
2022/03/04 04:00:10;;;;;;;19.55;12.60;;;16.00;58.60;;;;;;4050076;29;20058;-60
2022/03/04 04:02:37;;;;;;;16.05;11.70;;;16.00;57.80;;;;;;4048336;29;20510;-60
2022/03/04 04:04:59;;;;;;;18.52;12.50;;;15.90;58.60;;;;;;4047147;29;20154;-61
2022/03/04 04:07:21;;;;;;;17.55;11.80;;;15.80;58.00;;;;;;4047525;29;20131;-60
2022/03/04 04:09:43;;;;;;;19.23;13.10;;;15.90;58.40;;;;;;4047648;29;20060;-60
2022/03/04 04:12:06;;;;;;;18.02;12.27;;;15.90;58.40;;;;;;4060206;29;20394;-60
2022/03/04 04:14:29;;;;;;;18.08;11.63;;;15.90;58.10;;;;;;4063169;29;20426;-60
2022/03/04 04:16:51;;;;;;;17.58;12.75;;;16.00;57.90;;;;;;4062566;29;20115;-61
2022/03/04 04:19:14;;;;;;;20.42;13.68;;;16.10;57.80;;;;;;4063108;29;20458;-61
2022/03/04 04:21:36;;;;;;;18.33;12.35;;;16.10;57.70;;;;;;4053719;29;20072;-60
2022/03/04 04:23:59;;;;;;;18.20;12.77;;;16.10;57.50;;;;;;4047218;29;20530;-61
2022/03/04 04:26:21;;;;;;;18.45;12.52;;;16.10;57.40;;;;;;4047156;29;20396;-61
2022/03/04 04:28:44;;;;;;;18.48;13.43;;;16.10;57.50;;;;;;4047348;29;20393;-61
2022/03/04 04:31:06;;;;;;;14.75;11.02;;;16.00;57.40;;;;;;4052755;29;20096;-60
2022/03/04 04:33:28;;;;;;;17.67;13.15;;;16.00;57.60;;;;;;4062687;29;20044;-60
2022/03/04 04:35:51;;;;;;;16.73;12.88;;;16.00;57.70;;;;;;4062571;29;20052;-60
2022/03/04 04:38:14;;;;;;;17.58;12.20;;;16.00;57.50;;;;;;4062623;29;20139;-59
2022/03/04 04:40:37;;;;;;;16.30;11.38;;;15.90;57.60;;;;;;4045630;29;20052;-59
2022/03/04 04:42:59;;;;;;;15.35;11.82;;;15.80;57.80;;;;;;4056806;29;20048;-60
2022/03/04 04:45:22;;;;;;;17.80;13.02;;;15.80;57.70;;;;;;4054618;29;20447;-59
2022/03/04 04:47:44;;;;;;;19.15;13.15;;;15.80;57.80;;;;;;4062257;29;20146;-61
2022/03/04 04:50:07;;;;;;;19.13;12.85;;;15.80;57.80;;;;;;4062927;29;20050;-60
2022/03/04 04:52:31;;;;;;;16.05;12.07;;;15.70;58.30;;;;;;4063324;29;21492;-60
2022/03/04 04:54:53;;;;;;;18.05;12.75;;;15.70;58.50;;;;;;4050831;29;20060;-60
2022/03/04 04:57:16;;;;;;;18.52;12.05;;;15.70;59.20;;;;;;4050540;29;20052;-60
2022/03/04 04:59:38;;;;;;;17.00;12.60;;;15.80;58.30;;;;;;4053315;29;20055;-60
2022/03/04 05:02:00;;;;;;;19.15;13.93;;;15.90;58.10;;;;;;4065652;29;20443;-60
2022/03/04 05:04:23;;;;;;;18.02;12.45;;;16.10;57.80;;;;;;4050895;29;20055;-60
2022/03/04 05:06:45;;;;;;;19.50;13.38;;;16.20;57.30;;;;;;4050390;29;20048;-61
2022/03/04 05:09:08;;;;;;;16.23;12.32;;;16.30;57.20;;;;;;4048761;29;20526;-60
2022/03/04 05:11:31;;;;;;;16.42;11.85;;;16.40;56.80;;;;;;4054183;29;20100;-60
2022/03/04 05:13:53;;;;;;;17.35;12.20;;;16.50;56.50;;;;;;4056114;29;20060;-61
2022/03/04 05:16:15;;;;;;;17.02;12.35;;;16.50;57.20;;;;;;4049967;29;20052;-61
2022/03/04 05:18:38;;;;;;;15.57;11.88;;;16.50;56.40;;;;;;4049653;29;20049;-61
2022/03/04 05:21:02;;;;;;;14.85;11.82;;;16.50;57.10;;;;;;4065259;29;20052;-60
2022/03/04 05:26:05;;;;;;;16.92;12.32;;;16.40;56.70;;;;;;4065338;29;20124;-61
2022/03/04 05:28:27;;;;;;;16.25;12.68;;;16.40;56.70;;;;;;4065246;29;20047;-60
2022/03/04 05:30:50;;;;;;;15.77;12.13;;;16.30;56.80;;;;;;4051378;29;20048;-59
2022/03/04 05:33:12;;;;;;;14.48;10.93;;;16.30;56.80;;;;;;4050447;29;20063;-60
2022/03/04 05:35:34;;;;;;;17.23;11.25;;;16.40;56.60;;;;;;4050931;29;20394;-60
2022/03/04 05:37:56;;;;;;;15.05;11.07;;;16.40;56.70;;;;;;4065321;29;20459;-59
2022/03/04 05:40:19;;;;;;;14.52;11.80;;;16.50;56.70;;;;;;4064840;29;20099;-59
2022/03/04 05:42:42;;;;;;;15.05;11.13;;;16.50;56.50;;;;;;4064196;29;20052;-59
2022/03/04 05:45:05;;;;;;;15.80;12.05;;;16.50;56.20;;;;;;4064989;29;20129;-60
2022/03/04 05:47:28;;;;;;;15.98;12.25;;;16.50;56.20;;;;;;4056126;29;20056;-60
2022/03/04 05:49:50;;;;;;;15.43;12.07;;;16.50;56.20;;;;;;4049843;29;20100;-60
2022/03/04 05:52:12;;;;;;;16.60;11.60;;;16.50;56.40;;;;;;4050739;29;20052;-60
2022/03/04 05:54:34;;;;;;;16.30;12.10;;;16.50;56.60;;;;;;4064739;29;20048;-60
2022/03/04 05:56:56;;;;;;;15.48;11.02;;;16.50;56.60;;;;;;4064617;29;20056;-60
2022/03/04 05:59:20;;;;;;;14.65;11.63;;;16.60;56.40;;;;;;4064345;29;20528;-60
2022/03/04 06:01:42;;;;;;;15.90;12.20;;;16.60;56.10;;;;;;4048243;29;20059;-59
2022/03/04 06:04:05;;;;;;;14.10;11.40;;;16.70;56.60;;;;;;4048742;29;20068;-61
2022/03/04 06:06:27;;;;;;;15.32;11.50;;;16.60;56.00;;;;;;4049289;29;20112;-61
2022/03/04 06:08:50;;;;;;;14.05;11.40;;;16.60;56.10;;;;;;4049148;29;20052;-60
2022/03/04 06:11:12;;;;;;;16.63;12.88;;;16.50;56.20;;;;;;4050383;29;20076;-60
2022/03/04 06:13:35;;;;;;;16.50;12.05;;;16.50;56.40;;;;;;4063757;29;20079;-61
2022/03/04 06:15:59;;;;;;;15.45;12.48;;;16.50;56.40;;;;;;4055345;29;20100;-61
2022/03/04 06:18:21;;;;;;;16.77;12.32;;;16.40;56.40;;;;;;4049450;29;20072;-59
2022/03/04 06:20:44;;;;;;;14.70;11.60;;;16.40;56.40;;;;;;4047951;29;20090;-59
2022/03/04 06:23:05;;;;;;;15.23;12.32;;;16.40;56.50;;;;;;4058945;29;20071;-59
2022/03/04 06:25:27;;;;;;;18.63;13.32;;;16.30;56.70;;;;;;4063564;29;20056;-60
2022/03/04 06:27:54;;;;;;;17.02;12.05;;;16.30;56.70;;;;;;4064553;29;20120;-60
2022/03/04 06:30:16;;;;;;;18.52;13.57;;;16.30;56.60;;;;;;4058802;29;20491;-60
2022/03/04 06:32:40;;;;;;;19.25;13.30;;;16.30;56.70;;;;;;4054805;29;20068;-60
2022/03/04 06:35:02;;;;;;;21.52;15.48;;;16.20;56.80;;;;;;4064479;29;20550;-60
2022/03/04 06:37:25;;;;;;;21.77;15.20;;;16.20;56.90;;;;;;4064497;29;20107;-60
2022/03/04 06:39:47;;;;;;;21.08;14.80;;;16.20;56.80;;;;;;4064172;29;20071;-61
2022/03/04 06:42:10;;;;;;;19.58;14.48;;;16.10;56.70;;;;;;4063399;29;20538;-61
2022/03/04 06:44:32;;;;;;;21.52;15.30;;;16.10;57.10;;;;;;4047412;29;20085;-61
2022/03/04 06:46:55;;;;;;;19.35;14.07;;;16.00;57.20;;;;;;4048469;29;20067;-60
2022/03/04 06:49:18;;;;;;;19.20;14.73;;;16.10;57.30;;;;;;4048498;29;20487;-61
2022/03/04 06:51:41;;;;;;;18.33;14.60;;;16.10;56.90;;;;;;4048573;29;20345;-61
2022/03/04 06:54:03;;;;;;;19.05;15.45;;;16.20;56.90;;;;;;4048516;29;20120;-60
2022/03/04 06:56:25;;;;;;;21.95;15.75;;;16.20;56.50;;;;;;4048100;29;20440;-62
2022/03/04 06:58:48;;;;;;;24.85;16.45;;;16.30;56.00;;;;;;4047906;29;20377;-61
2022/03/04 07:01:09;;;;;;;20.77;15.48;;;16.30;56.30;;;;;;4060385;29;20052;-61
2022/03/04 07:03:32;;;;;;;17.73;14.63;;;16.30;56.50;;;;;;4050799;29;20491;-60
2022/03/04 07:05:56;;;;;;;18.30;14.32;;;16.30;56.30;;;;;;4048594;29;20056;-62
2022/03/04 07:08:18;;;;;;;21.10;13.00;;;16.20;56.90;;;;;;4050876;29;20116;-61
2022/03/04 07:10:42;;;;;;;16.60;12.95;;;16.30;57.30;;;;;;4063725;29;20048;-61
2022/03/04 07:13:06;;;;;;;14.48;11.85;;;16.30;57.30;;;;;;4063884;29;20051;-62
2022/03/04 07:15:29;;;;;;;17.30;11.98;;;16.40;57.10;;;;;;4033428;29;20045;-61
2022/03/04 07:17:51;;;;;;;16.63;12.00;;;16.40;56.80;;;;;;4060803;29;20173;-60
2022/03/04 07:20:14;;;;;;;14.60;11.40;;;16.50;56.70;;;;;;4056245;29;20062;-59
2022/03/04 07:22:39;;;;;;;14.73;11.57;;;16.50;56.50;;;;;;4058127;29;20057;-60
2022/03/04 07:25:01;;;;;;;13.73;11.00;;;16.50;56.50;;;;;;4068952;29;20076;-60
2022/03/04 07:27:24;;;;;;;12.45;10.10;;;16.40;56.30;;;;;;4067817;29;20466;-60
2022/03/04 07:29:46;;;;;;;12.55;10.70;;;16.40;56.50;;;;;;4059207;29;20147;-60
2022/03/04 07:32:09;;;;;;;12.95;10.55;;;16.40;56.40;;;;;;4061914;29;20044;-60
2022/03/04 07:34:32;;;;;;;16.70;11.52;;;16.40;56.20;;;;;;4053765;29;20055;-60
2022/03/04 07:36:54;;;;;;;13.00;10.38;;;16.40;56.40;;;;;;4049056;29;20052;-60
2022/03/04 07:39:17;;;;;;;12.48;10.45;;;16.40;56.30;;;;;;4053134;29;20055;-60
2022/03/04 07:41:40;;;;;;;14.02;10.15;;;16.50;56.10;;;;;;4054692;29;20053;-60
2022/03/04 07:44:02;;;;;;;13.85;10.30;;;16.50;56.00;;;;;;4063313;29;20058;-60
2022/03/04 07:46:25;;;;;;;14.60;11.75;;;16.50;56.10;;;;;;4063002;29;20055;-61
2022/03/04 07:48:47;;;;;;;13.10;10.65;;;16.40;56.00;;;;;;4061458;29;20403;-61
2022/03/04 07:51:09;;;;;;;14.13;10.27;;;16.40;56.20;;;;;;4063270;29;20048;-61
2022/03/04 07:53:31;;;;;;;14.05;10.23;;;16.40;56.30;;;;;;4046080;29;20056;-60
2022/03/04 07:55:55;;;;;;;16.13;10.77;;;16.40;56.30;;;;;;4047244;29;20048;-61
2022/03/04 07:58:17;;;;;;;16.05;10.77;;;16.40;56.20;;;;;;4047634;29;20057;-60
2022/03/04 08:00:40;;;;;;;12.80;10.90;;;16.40;56.10;;;;;;4048091;29;20159;-60
2022/03/04 08:03:05;;;;;;;12.88;10.15;;;16.40;56.20;;;;;;4047858;29;20127;-60
2022/03/04 08:05:27;;;;;;;13.52;9.55;;;16.30;56.20;;;;;;4047823;29;20120;-60
2022/03/04 08:07:50;;;;;;;11.75;9.85;;;16.30;56.40;;;;;;4055261;29;20488;-61
2022/03/04 08:10:13;;;;;;;13.90;10.65;;;16.20;56.30;;;;;;4063273;29;20064;-61
2022/03/04 08:12:38;;;;;;;11.48;9.63;;;16.10;56.30;;;;;;4062942;29;20578;-61
2022/03/04 08:15:00;;;;;;;13.07;10.52;;;16.10;56.70;;;;;;4063381;29;20051;-61
2022/03/04 08:17:26;;;;;;;14.60;10.35;;;16.00;56.80;;;;;;4062360;29;20343;-60
2022/03/04 08:19:48;;;;;;;16.35;11.07;;;15.90;57.00;;;;;;4062832;29;20051;-60
2022/03/04 08:22:10;;;;;;;14.57;9.35;;;15.80;57.10;;;;;;4062785;29;20067;-60
2022/03/04 08:24:47;;;;;;;13.73;9.90;;;15.80;57.30;;;;;;4062360;29;20063;-61
2022/03/04 08:27:09;;;;;;;13.45;9.50;;;15.70;58.10;;;;;;4057837;29;20063;-61
2022/03/04 08:29:33;;;;;;;10.90;9.38;;;15.70;57.70;;;;;;4046920;29;20139;-61
2022/03/04 08:31:55;;;;;;;12.75;10.32;;;15.70;57.40;;;;;;4072720;29;20374;-62
2022/03/04 08:34:17;;;;;;;12.60;9.77;;;15.80;57.40;;;;;;4059386;29;20083;-60
2022/03/04 08:36:39;;;;;;;12.95;10.00;;;15.90;57.00;;;;;;4059861;29;20052;-63
2022/03/04 08:39:03;;;;;;;12.85;10.13;;;16.00;56.70;;;;;;4059734;29;20048;-64
2022/03/04 08:41:25;;;;;;;13.68;10.02;;;16.10;56.70;;;;;;4059135;29;20052;-64
2022/03/04 08:43:50;;;;;;;12.88;9.73;;;16.10;56.50;;;;;;4059400;29;20052;-64
2022/03/04 08:46:15;;;;;;;12.30;10.27;;;16.10;56.30;;;;;;4059366;29;20494;-64
2022/03/04 08:48:37;;;;;;;12.63;10.35;;;16.10;56.30;;;;;;4059955;29;20056;-63
2022/03/04 08:50:59;;;;;;;14.20;10.38;;;16.10;56.60;;;;;;4060177;29;20052;-63
2022/03/04 08:53:21;;;;;;;11.65;9.85;;;16.10;56.60;;;;;;4060033;29;20171;-61
2022/03/04 08:55:45;;;;;;;12.23;9.82;;;16.00;56.90;;;;;;4059583;29;20056;-61
2022/03/04 08:58:08;;;;;;;15.10;10.32;;;16.00;56.90;;;;;;4044994;29;20724;-61
2022/03/04 09:00:32;;;;;;;13.93;10.95;;;16.00;56.90;;;;;;4060376;29;20135;-61
2022/03/04 09:02:56;;;;;;;14.05;11.05;;;16.00;57.60;;;;;;4059590;29;20063;-60
2022/03/04 09:05:18;;;;;;;14.88;10.45;;;16.00;56.40;;;;;;4059619;29;20166;-61
2022/03/04 09:07:41;;;;;;;15.88;11.50;;;15.90;56.80;;;;;;4045332;29;20147;-61
2022/03/04 09:10:04;;;;;;;14.90;10.50;;;15.90;56.90;;;;;;4059562;29;20423;-61
2022/03/04 09:12:26;;;;;;;14.10;11.35;;;15.90;57.10;;;;;;4060061;29;20056;-65
2022/03/04 09:14:48;;;;;;;16.30;11.85;;;15.90;57.30;;;;;;4060062;29;20059;-65
2022/03/04 09:17:11;;;;;;;17.75;11.90;;;15.80;57.10;;;;;;4059787;29;20070;-64
2022/03/04 09:19:34;;;;;;;17.05;11.77;;;15.80;57.30;;;;;;4059925;29;20052;-63
2022/03/04 09:22:16;;;;;;;13.80;10.82;;;15.80;56.90;;;;;;4059414;29;20056;-64
2022/03/04 09:24:38;;;;;;;14.07;11.50;;;15.80;57.70;;;;;;4059747;29;20058;-65
2022/03/04 09:27:01;;;;;;;13.55;11.43;;;15.80;57.60;;;;;;4059848;29;20071;-61
2022/03/04 09:29:23;;;;;;;14.25;10.25;;;15.90;57.50;;;;;;4059919;29;20130;-61
2022/03/04 09:31:45;;;;;;;13.85;10.82;;;15.90;57.30;;;;;;4059795;29;20058;-61
2022/03/04 09:34:07;;;;;;;14.15;11.07;;;16.00;56.70;;;;;;4059795;29;20058;-61
2022/03/04 09:36:32;;;;;;;14.00;10.52;;;16.00;57.00;;;;;;4058614;29;20490;-61
2022/03/04 09:38:54;;;;;;;13.77;11.63;;;16.00;57.10;;;;;;4061605;29;20163;-60
2022/03/04 09:41:17;;;;;;;15.20;11.70;;;16.10;57.30;;;;;;4062335;29;20052;-61
2022/03/04 09:43:40;;;;;;;13.75;11.10;;;16.20;57.00;;;;;;4040390;29;20080;-61
2022/03/04 09:46:02;;;;;;;14.50;11.10;;;16.20;56.90;;;;;;4061855;29;20060;-61
2022/03/04 09:48:25;;;;;;;14.43;11.27;;;16.20;55.90;;;;;;4062306;29;20044;-61
2022/03/04 09:50:49;;;;;;;14.82;11.13;;;16.20;56.60;;;;;;4062041;29;20485;-61
2022/03/04 09:53:13;;;;;;;13.05;10.57;;;16.20;56.70;;;;;;4062197;29;20454;-62
2022/03/04 09:55:36;;;;;;;13.63;11.10;;;16.20;57.00;;;;;;4047582;29;20057;-61
2022/03/04 09:57:58;;;;;;;14.23;11.30;;;16.10;57.10;;;;;;4062747;29;20115;-61
2022/03/04 10:00:20;;;;;;;15.98;9.93;;;16.10;56.70;;;;;;4061913;29;20048;-61
2022/03/04 10:02:42;;;;;;;15.90;10.63;;;16.10;57.30;;;;;;4061515;29;20048;-62
2022/03/04 10:05:05;;;;;;;11.85;10.20;;;16.00;57.50;;;;;;4061986;29;20162;-61
2022/03/04 10:07:28;;;;;;;10.77;9.30;;;16.00;57.10;;;;;;4062220;29;20080;-60
2022/03/04 10:09:52;;;;;;;12.25;10.23;;;16.00;57.20;;;;;;4060997;29;20521;-61
2022/03/04 10:12:16;;;;;;;11.07;9.48;;;16.00;56.80;;;;;;4060940;29;20059;-62
2022/03/04 10:14:57;;;;;;;13.02;9.95;;;16.00;55.70;;;;;;4060374;29;20048;-61
2022/03/04 10:17:23;;;;;;;12.25;10.20;;;16.00;56.00;;;;;;4061469;29;20052;-61
2022/03/04 10:19:52;;;;;;;13.65;10.40;;;16.10;55.50;;;;;;4061977;29;20059;-61
2022/03/04 10:22:14;;;;;;;12.77;10.13;;;16.10;55.10;;;;;;4061675;29;20064;-61
2022/03/04 10:24:39;;;;;;;12.82;10.35;;;16.10;56.00;;;;;;4061947;29;20134;-61
2022/03/04 10:27:06;;;;;;;11.90;9.77;;;16.10;55.70;;;;;;4061357;29;20067;-62
2022/03/04 10:29:32;;;;;;;12.82;10.20;;;16.10;56.40;;;;;;4047358;29;20072;-61
2022/03/04 10:32:10;;;;;;;13.98;9.55;;;16.00;56.70;;;;;;4061437;29;20056;-61
2022/03/04 10:34:44;;;;;;;13.65;10.32;;;16.00;56.40;;;;;;4061154;29;20059;-61
2022/03/04 10:37:07;;;;;;;12.23;9.82;;;15.90;56.10;;;;;;4062031;29;20052;-60
2022/03/04 10:39:29;;;;;;;16.30;10.60;;;15.90;55.50;;;;;;4061902;29;20071;-60
2022/03/04 10:41:52;;;;;;;14.55;10.35;;;15.80;55.70;;;;;;4046731;29;20053;-61
2022/03/04 10:44:26;;;;;;;21.67;10.80;;;15.80;56.70;;;;;;4047725;29;20080;-61
2022/03/04 10:46:56;;;;;;;17.15;10.15;;;15.80;56.70;;;;;;4047141;29;20053;-61
2022/03/04 10:49:24;;;;;;;13.57;10.02;;;15.70;57.00;;;;;;4072519;29;20071;-61
2022/03/04 10:51:48;;;;;;;12.73;9.57;;;15.70;57.60;;;;;;4062267;29;20076;-61
2022/03/04 10:54:14;;;;;;;13.82;10.15;;;15.60;56.60;;;;;;4061251;29;20048;-62
2022/03/04 10:56:48;;;;;;;15.27;11.00;;;15.60;56.80;;;;;;4060809;29;20059;-61
2022/03/04 10:59:10;;;;;;;12.85;10.68;;;15.60;57.90;;;;;;4060581;29;20490;-61
2022/03/04 11:01:33;;;;;;;14.50;10.20;;;15.50;57.30;;;;;;4046464;29;20056;-62
2022/03/04 11:03:56;;;;;;;13.43;10.50;;;15.50;58.10;;;;;;4060552;29;20455;-61
2022/03/04 11:06:18;;;;;;;15.77;11.05;;;15.50;57.10;;;;;;4061065;29;20056;-61
2022/03/04 11:08:42;;;;;;;14.82;10.82;;;15.50;57.70;;;;;;4061301;29;20538;-61
2022/03/04 11:11:07;;;;;;;14.98;11.82;;;15.40;57.50;;;;;;4061292;29;20765;-61
2022/03/04 11:13:30;;;;;;;16.63;12.20;;;15.40;56.40;;;;;;4061350;29;20044;-61
2022/03/04 11:15:53;;;;;;;15.45;11.05;;;15.40;56.10;;;;;;4060405;29;20155;-62
2022/03/04 11:18:19;;;;;;;15.23;10.98;;;15.40;56.00;;;;;;4060954;29;20048;-61
2022/03/04 11:20:42;;;;;;;13.48;10.05;;;15.40;56.30;;;;;;4061529;29;20052;-61
2022/03/04 11:23:06;;;;;;;14.98;11.57;;;15.30;55.30;;;;;;4061284;29;20510;-61
2022/03/04 11:25:35;;;;;;;14.93;10.70;;;15.40;55.30;;;;;;4061166;29;20056;-61
2022/03/04 11:28:00;;;;;;;15.98;11.93;;;15.30;55.00;;;;;;4060269;29;20151;-61
2022/03/04 11:30:37;;;;;;;16.42;10.65;;;15.30;55.60;;;;;;4060760;29;20059;-62
2022/03/04 11:33:05;;;;;;;19.45;13.05;;;15.20;55.40;;;;;;4061131;29;20115;-62
2022/03/04 11:35:52;;;;;;;16.75;12.30;;;15.20;55.80;;;;;;4060469;29;20052;-62
2022/03/04 11:38:15;;;;;;;15.90;12.32;;;15.20;55.30;;;;;;4060438;29;20395;-61
2022/03/04 11:40:38;;;;;;;14.32;11.75;;;15.10;55.10;;;;;;4060944;29;20475;-62
2022/03/04 11:43:00;;;;;;;17.33;12.23;;;15.10;52.60;;;;;;4060172;29;20531;-62
2022/03/04 11:45:32;;;;;;;15.55;12.50;;;15.10;53.50;;;;;;4060873;29;20055;-61
2022/03/04 11:48:04;;;;;;;16.63;12.73;;;15.10;52.90;;;;;;4060516;29;20064;-61
2022/03/04 11:50:29;;;;;;;15.68;11.65;;;15.00;52.70;;;;;;4060389;29;20059;-62
2022/03/04 11:52:53;;;;;;;15.60;12.15;;;15.00;54.50;;;;;;4046342;29;20152;-61
2022/03/04 11:55:23;;;;;;;16.60;12.57;;;15.10;55.60;;;;;;4060294;29;20139;-62
2022/03/04 11:57:46;;;;;;;20.20;13.25;;;15.00;55.00;;;;;;4045160;29;20080;-62
2022/03/04 12:00:24;;;;;;;16.83;13.15;;;15.00;55.80;;;;;;4060162;29;20112;-61
2022/03/04 12:02:48;;;;;;;16.15;11.57;;;15.00;54.20;;;;;;4059509;29;20655;-61
2022/03/04 12:05:30;;;;;;;17.70;13.75;;;15.00;55.70;;;;;;4060461;29;20052;-61
2022/03/04 12:08:09;;;;;;;18.98;14.82;;;15.00;57.00;;;;;;4045919;29;20143;-60
2022/03/04 12:10:32;;;;;;;19.65;13.85;;;15.00;56.30;;;;;;4059334;29;20083;-62
2022/03/04 12:13:01;;;;;;;33.97;14.75;;;15.00;54.90;;;;;;4060083;29;20060;-62